| time (UTC) | temp F | wind direction | speed MPH | gust MPH | rain 1hr in | rain 24hr in | rain mn in | humidity % | barometer mb |
| 20260510130016 | 56 | 233 | 0.0 | 0.0 | 0.00 | 0.19 | 0.01 | 97 | 1014.1 |
| 20260510125017 | 55 | 233 | 0.0 | 0.0 | 0.00 | 0.19 | 0.01 | 97 | 1014.1 |
| 20260510124016 | 54 | 233 | 0.0 | 0.0 | 0.00 | 0.19 | 0.01 | 97 | 1014.1 |
| 20260510123016 | 54 | 233 | 0.0 | 0.0 | 0.00 | 0.19 | 0.01 | 97 | 1014.0 |
| 20260510122017 | 54 | 233 | 0.0 | 0.0 | 0.00 | 0.19 | 0.01 | 97 | 1013.8 |
| 20260510121016 | 53 | 217 | 0.0 | 0.0 | 0.00 | 0.19 | 0.01 | 97 | 1013.6 |
| 20260510120017 | 53 | 0.0 | 1.0 | 0.00 | 0.19 | 0.01 | 97 | 1013.6 | |
| 20260510115016 | 53 | 262 | 0.0 | 0.0 | 0.00 | 0.19 | 0.01 | 97 | 1013.3 |
| 20260510114016 | 53 | 262 | 0.0 | 0.0 | 0.00 | 0.19 | 0.01 | 97 | 1013.1 |
| 20260510113018 | 52 | 262 | 0.0 | 0.0 | 0.00 | 0.19 | 0.01 | 97 | 1013.2 |
| 20260510112016 | 52 | 262 | 0.0 | 0.0 | 0.00 | 0.19 | 0.01 | 97 | 1013.3 |
| 20260510111017 | 51 | 262 | 0.0 | 0.0 | 0.00 | 0.19 | 0.01 | 97 | 1013.0 |
| 20260510110017 | 51 | 262 | 0.0 | 0.0 | 0.00 | 0.19 | 0.01 | 97 | 1013.1 |
| 20260510105017 | 51 | 262 | 0.0 | 0.0 | 0.00 | 0.19 | 0.01 | 97 | 1012.9 |
| 20260510104016 | 51 | 0.0 | 1.0 | 0.00 | 0.19 | 0.01 | 97 | 1013.3 | |
| 20260510103016 | 51 | 127 | 0.0 | 0.0 | 0.01 | 0.19 | 0.01 | 97 | 1012.8 |
| 20260510102016 | 51 | 127 | 0.0 | 0.0 | 0.01 | 0.19 | 0.01 | 97 | 1012.6 |
| 20260510101017 | 51 | 127 | 0.0 | 0.0 | 0.01 | 0.19 | 0.01 | 97 | 1012.5 |
| 20260510100016 | 51 | 127 | 0.0 | 0.0 | 0.01 | 0.19 | 0.01 | 97 | 1012.4 |
| 20260510095016 | 51 | 127 | 0.0 | 0.0 | 0.01 | 0.19 | 0.01 | 97 | 1012.3 |
| 20260510094017 | 50 | 105 | 0.0 | 0.0 | 0.01 | 0.19 | 0.01 | 97 | 1012.5 |
| 20260510093016 | 50 | 105 | 0.0 | 0.0 | 0.00 | 0.18 | 0.00 | 97 | 1012.2 |
| 20260510092017 | 50 | 105 | 0.0 | 0.0 | 0.00 | 0.18 | 0.00 | 97 | 1012.2 |
| 20260510091016 | 50 | 0.0 | 1.0 | 0.00 | 0.18 | 0.00 | 97 | 1012.1 | |
| 20260510090017 | 49 | 0.0 | 1.0 | 0.00 | 0.18 | 0.00 | 97 | 1012.1 | |
| 20260510085016 | 49 | 0.0 | 1.0 | 0.00 | 0.18 | 0.00 | 97 | 1012.2 | |
| 20260510084017 | 49 | 0.0 | 1.0 | 0.00 | 0.18 | 0.00 | 97 | 1012.5 | |
| 20260510083016 | 49 | 157 | 0.0 | 0.0 | 0.00 | 0.18 | 0.00 | 97 | 1012.6 |
| 20260510082017 | 49 | 135 | 1.0 | 2.0 | 0.00 | 0.18 | 0.00 | 97 | 1012.4 |
| 20260510081017 | 49 | 293 | 1.0 | 2.0 | 0.00 | 0.18 | 0.00 | 96 | 1012.8 |
| 20260510080016 | 49 | 68 | 0.0 | 0.0 | 0.00 | 0.18 | 0.00 | 97 | 1011.7 |
| 20260510075016 | 48 | 68 | 0.0 | 0.0 | 0.00 | 0.18 | 0.00 | 96 | 1011.7 |
| 20260510074017 | 48 | 68 | 0.0 | 0.0 | 0.00 | 0.18 | 0.00 | 96 | 1011.7 |
| 20260510073016 | 48 | 68 | 0.0 | 0.0 | 0.00 | 0.18 | 0.00 | 96 | 1011.5 |
| 20260510072016 | 48 | 0.0 | 1.0 | 0.00 | 0.18 | 0.00 | 96 | 1011.7 | |
| 20260510071017 | 48 | 150 | 0.0 | 0.0 | 0.00 | 0.18 | 0.00 | 96 | 1011.6 |
| 20260510070016 | 48 | 150 | 0.0 | 0.0 | 0.00 | 0.18 | 0.00 | 96 | 1011.4 |
| 20260510065016 | 47 | 150 | 0.0 | 0.0 | 0.00 | 0.18 | 0.00 | 96 | 1011.4 |
| 20260510064016 | 47 | 150 | 0.0 | 0.0 | 0.00 | 0.18 | 0.00 | 96 | 1011.4 |
| 20260510063016 | 47 | 150 | 0.0 | 0.0 | 0.00 | 0.18 | 0.00 | 96 | 1011.0 |
| 20260510062016 | 47 | 150 | 0.0 | 0.0 | 0.00 | 0.18 | 0.00 | 96 | 1011.0 |
| 20260510061016 | 47 | 150 | 0.0 | 0.0 | 0.00 | 0.18 | 0.00 | 96 | 1011.1 |
| 20260510060016 | 48 | 150 | 0.0 | 0.0 | 0.00 | 0.18 | 0.00 | 96 | 1011.1 |
| 20260510055016 | 48 | 150 | 0.0 | 0.0 | 0.00 | 0.18 | 0.00 | 96 | 1011.3 |
| 20260510054016 | 48 | 150 | 0.0 | 0.0 | 0.00 | 0.18 | 0.00 | 96 | 1011.3 |
| 20260510053016 | 48 | 150 | 0.0 | 0.0 | 0.00 | 0.18 | 0.00 | 96 | 1011.4 |
| 20260510052016 | 48 | 150 | 0.0 | 0.0 | 0.00 | 0.18 | 0.00 | 96 | 1011.5 |
| 20260510051017 | 48 | 150 | 0.0 | 0.0 | 0.00 | 0.18 | 0.00 | 96 | 1011.5 |
| 20260510050016 | 49 | 150 | 0.0 | 0.0 | 0.00 | 0.18 | 0.00 | 96 | 1011.6 |
| 20260510045016 | 49 | 150 | 0.0 | 0.0 | 0.00 | 0.18 | 0.00 | 96 | 1011.7 |
| 20260510044016 | 49 | 150 | 0.0 | 0.0 | 0.00 | 0.18 | 0.00 | 96 | 1011.7 |
| 20260510043016 | 49 | 150 | 0.0 | 0.0 | 0.00 | 0.18 | 0.00 | 96 | 1011.8 |
| 20260510042017 | 50 | 150 | 0.0 | 0.0 | 0.00 | 0.18 | 0.00 | 96 | 1011.7 |
| 20260510041516 | 50 | 150 | 0.0 | 0.0 | 0.00 | 0.18 | 0.00 | 96 | 1011.7 |
| 20260510040516 | 50 | 150 | 0.0 | 0.0 | 0.00 | 0.18 | 0.00 | 96 | 1011.8 |
| 20260510035517 | 50 | 150 | 0.0 | 0.0 | 0.00 | 0.18 | 0.18 | 96 | 1011.9 |
| 20260510034517 | 50 | 150 | 0.0 | 0.0 | 0.00 | 0.18 | 0.18 | 96 | 1011.9 |
| 20260510033516 | 50 | 150 | 0.0 | 0.0 | 0.00 | 0.18 | 0.18 | 96 | 1011.8 |
| 20260510032516 | 50 | 150 | 0.0 | 0.0 | 0.00 | 0.18 | 0.18 | 96 | 1011.7 |
| 20260510031516 | 50 | 150 | 0.0 | 0.0 | 0.00 | 0.18 | 0.18 | 96 | 1011.6 |
| 20260510030516 | 50 | 150 | 0.0 | 0.0 | 0.00 | 0.18 | 0.18 | 96 | 1011.5 |
| 20260510025516 | 50 | 150 | 0.0 | 0.0 | 0.00 | 0.18 | 0.18 | 96 | 1011.4 |
| 20260510024516 | 50 | 150 | 0.0 | 0.0 | 0.00 | 0.18 | 0.18 | 95 | 1011.3 |
| 20260510023515 | 51 | 150 | 0.0 | 0.0 | 0.00 | 0.18 | 0.18 | 95 | 1011.4 |
| 20260510022516 | 51 | 150 | 0.0 | 0.0 | 0.00 | 0.18 | 0.18 | 95 | 1011.4 |
| 20260510021515 | 51 | 150 | 0.0 | 0.0 | 0.00 | 0.18 | 0.18 | 95 | 1011.3 |
| 20260510020515 | 51 | 150 | 0.0 | 0.0 | 0.00 | 0.18 | 0.18 | 95 | 1011.3 |
| 20260510015517 | 51 | 150 | 0.0 | 0.0 | 0.00 | 0.18 | 0.18 | 95 | 1011.2 |
| 20260510014516 | 52 | 150 | 0.0 | 0.0 | 0.00 | 0.18 | 0.18 | 95 | 1011.2 |
| 20260510013516 | 52 | 150 | 0.0 | 0.0 | 0.00 | 0.18 | 0.18 | 95 | 1011.2 |
| 20260510012516 | 52 | 150 | 0.0 | 0.0 | 0.00 | 0.18 | 0.18 | 95 | 1011.2 |
| 20260510011516 | 52 | 150 | 0.0 | 0.0 | 0.00 | 0.18 | 0.18 | 95 | 1011.0 |
| 20260510010516 | 53 | 150 | 0.0 | 0.0 | 0.00 | 0.18 | 0.18 | 94 | 1010.9 |
| 20260510005516 | 53 | 150 | 0.0 | 0.0 | 0.00 | 0.18 | 0.18 | 94 | 1010.8 |
| 20260510004515 | 53 | 150 | 0.0 | 0.0 | 0.00 | 0.18 | 0.18 | 94 | 1010.7 |
| 20260510003515 | 54 | 150 | 0.0 | 0.0 | 0.00 | 0.18 | 0.18 | 94 | 1010.6 |
| 20260510002516 | 55 | 150 | 0.0 | 0.0 | 0.00 | 0.18 | 0.18 | 94 | 1010.6 |
| 20260510001517 | 55 | 150 | 0.0 | 0.0 | 0.00 | 0.18 | 0.18 | 93 | 1010.6 |
| 20260510000515 | 56 | 150 | 0.0 | 0.0 | 0.00 | 0.18 | 0.18 | 93 | 1010.7 |
| 20260509235516 | 56 | 0.0 | 1.0 | 0.00 | 0.18 | 0.18 | 93 | 1010.6 | |
| 20260509234516 | 57 | 154 | 0.0 | 0.0 | 0.00 | 0.18 | 0.18 | 92 | 1010.6 |
| 20260509233516 | 57 | 154 | 0.0 | 0.0 | 0.00 | 0.18 | 0.18 | 92 | 1010.6 |
| 20260509232515 | 57 | 154 | 0.0 | 0.0 | 0.00 | 0.18 | 0.18 | 91 | 1010.6 |
| 20260509231515 | 58 | 154 | 0.0 | 0.0 | 0.00 | 0.18 | 0.18 | 89 | 1010.6 |
| 20260509230516 | 59 | 154 | 0.0 | 0.0 | 0.00 | 0.18 | 0.18 | 89 | 1010.6 |
| 20260509225516 | 60 | 0.0 | 1.0 | 0.00 | 0.18 | 0.18 | 90 | 1010.5 | |
| 20260509224515 | 59 | 0.0 | 1.0 | 0.00 | 0.18 | 0.18 | 91 | 1010.5 | |
| 20260509223516 | 59 | 73 | 0.0 | 0.0 | 0.00 | 0.18 | 0.18 | 92 | 1010.6 |
| 20260509222515 | 59 | 0.0 | 1.0 | 0.00 | 0.18 | 0.18 | 92 | 1010.5 | |
| 20260509221515 | 58 | 0.0 | 1.0 | 0.00 | 0.18 | 0.18 | 92 | 1010.7 | |
| 20260509220515 | 58 | 135 | 1.0 | 3.0 | 0.00 | 0.18 | 0.18 | 92 | 1010.5 |
| 20260509215515 | 58 | 0.0 | 2.0 | 0.00 | 0.18 | 0.18 | 92 | 1010.5 | |
| 20260509214515 | 58 | 0.0 | 2.0 | 0.00 | 0.18 | 0.18 | 93 | 1010.5 | |
| 20260509213516 | 57 | 0.0 | 1.0 | 0.00 | 0.18 | 0.18 | 93 | 1010.5 | |
| 20260509212517 | 57 | 78 | 0.0 | 0.0 | 0.00 | 0.18 | 0.18 | 93 | 1010.5 |
| 20260509211517 | 57 | 78 | 0.0 | 0.0 | 0.02 | 0.18 | 0.18 | 92 | 1010.7 |
| 20260509210518 | 57 | 78 | 0.0 | 0.0 | 0.02 | 0.18 | 0.18 | 92 | 1010.8 |
| 20260509205517 | 57 | 78 | 0.0 | 0.0 | 0.02 | 0.18 | 0.18 | 93 | 1010.7 |
| 20260509204517 | 57 | 0.0 | 1.0 | 0.03 | 0.18 | 0.18 | 92 | 1010.7 | |
| 20260509203517 | 57 | 0.0 | 2.0 | 0.03 | 0.18 | 0.18 | 93 | 1010.8 | |
| 20260509202517 | 57 | 0.0 | 2.0 | 0.03 | 0.18 | 0.18 | 93 | 1010.8 | |
| 20260509201517 | 57 | 0.0 | 1.0 | 0.01 | 0.16 | 0.16 | 93 | 1010.7 | |
| 20260509200517 | 57 | 0.0 | 1.0 | 0.01 | 0.16 | 0.16 | 93 | 1010.6 | |
| 20260509195517 | 56 | 0.0 | 2.0 | 0.02 | 0.16 | 0.16 | 93 | 1010.8 | |
| 20260509194518 | 56 | 0.0 | 2.0 | 0.02 | 0.15 | 0.15 | 92 | 1010.8 | |
| 20260509193517 | 56 | 0.0 | 1.0 | 0.02 | 0.15 | 0.15 | 93 | 1010.9 | |
| 20260509192517 | 56 | 87 | 0.0 | 0.0 | 0.02 | 0.15 | 0.15 | 93 | 1011.3 |
| 20260509191517 | 56 | 0.0 | 1.0 | 0.02 | 0.15 | 0.15 | 92 | 1011.4 | |
| 20260509190517 | 56 | 215 | 0.0 | 0.0 | 0.02 | 0.15 | 0.15 | 92 | 1011.5 |
| 20260509185517 | 56 | 0.0 | 1.0 | 0.02 | 0.14 | 0.14 | 92 | 1011.7 | |
| 20260509184517 | 57 | 0.0 | 1.0 | 0.02 | 0.13 | 0.13 | 92 | 1011.8 | |
| 20260509183517 | 57 | 229 | 0.0 | 0.0 | 0.02 | 0.13 | 0.13 | 92 | 1011.9 |
| 20260509182517 | 56 | 229 | 0.0 | 0.0 | 0.04 | 0.13 | 0.13 | 92 | 1012.0 |
| 20260509181517 | 56 | 0.0 | 1.0 | 0.05 | 0.13 | 0.13 | 92 | 1012.1 | |
| 20260509180517 | 55 | 0.0 | 1.0 | 0.06 | 0.13 | 0.13 | 92 | 1012.1 | |
| 20260509175517 | 56 | 0.0 | 1.0 | 0.05 | 0.12 | 0.12 | 91 | 1012.3 | |
| 20260509174517 | 56 | 240 | 0.0 | 0.0 | 0.04 | 0.11 | 0.11 | 91 | 1012.4 |
| 20260509173518 | 56 | 0.0 | 1.0 | 0.04 | 0.11 | 0.11 | 90 | 1012.4 | |
| 20260509172517 | 56 | 0.0 | 1.0 | 0.03 | 0.09 | 0.09 | 89 | 1012.3 | |
| 20260509171517 | 56 | 225 | 1.0 | 2.0 | 0.02 | 0.08 | 0.08 | 88 | 1012.2 |
| 20260509170521 | 57 | 0.0 | 1.0 | 0.01 | 0.07 | 0.07 | 89 | 1012.0 | |
| 20260509165517 | 57 | 240 | 0.0 | 0.0 | 0.02 | 0.07 | 0.07 | 89 | 1011.9 |
| 20260509164517 | 57 | 0.0 | 1.0 | 0.03 | 0.07 | 0.07 | 87 | 1011.9 | |
| 20260509163517 | 58 | 0.0 | 1.0 | 0.04 | 0.07 | 0.07 | 89 | 1011.9 | |
| 20260509162517 | 58 | 0.0 | 1.0 | 0.04 | 0.06 | 0.06 | 90 | 1012.1 | |
| 20260509161517 | 58 | 219 | 0.0 | 0.0 | 0.05 | 0.06 | 0.06 | 89 | 1012.3 |
| 20260509160517 | 58 | 0.0 | 3.0 | 0.05 | 0.06 | 0.06 | 88 | 1012.4 | |
| 20260509155517 | 59 | 245 | 0.0 | 0.0 | 0.05 | 0.05 | 0.05 | 89 | 1012.8 |
| 20260509154517 | 59 | 218 | 0.0 | 0.0 | 0.04 | 0.04 | 0.04 | 88 | 1013.0 |
| 20260509153517 | 59 | 0.0 | 2.0 | 0.03 | 0.03 | 0.03 | 87 | 1013.0 | |
| 20260509152518 | 59 | 0.0 | 1.0 | 0.02 | 0.02 | 0.02 | 87 | 1013.0 | |
| 20260509151517 | 59 | 248 | 1.0 | 4.0 | 0.01 | 0.01 | 0.01 | 85 | 1012.9 |
| 20260509150520 | 60 | 0.0 | 2.0 | 0.01 | 0.01 | 0.01 | 85 | 1012.9 | |
| 20260509145517 | 60 | 270 | 1.0 | 4.0 | 0.00 | 0.00 | 0.00 | 82 | 1012.8 |
| 20260509144517 | 61 | 270 | 1.0 | 9.0 | 0.00 | 0.00 | 0.00 | 79 | 1012.9 |
| 20260509143517 | 61 | 248 | 1.0 | 4.0 | 0.00 | 0.00 | 0.00 | 77 | 1012.8 |
| 20260509142516 | 60 | 270 | 1.0 | 6.0 | 0.00 | 0.00 | 0.00 | 77 | 1012.7 |
| 20260509141517 | 60 | 248 | 2.0 | 6.0 | 0.00 | 0.00 | 0.00 | 77 | 1012.5 |
| 20260509140517 | 60 | 248 | 1.0 | 5.0 | 0.00 | 0.00 | 0.00 | 78 | 1012.5 |
| 20260509135517 | 60 | 293 | 2.0 | 6.0 | 0.00 | 0.00 | 0.00 | 79 | 1012.4 |
| 20260509134516 | 59 | 158 | 1.0 | 6.0 | 0.00 | 0.00 | 0.00 | 80 | 1012.4 |
| 20260509133516 | 59 | 248 | 1.0 | 6.0 | 0.00 | 0.00 | 0.00 | 81 | 1012.3 |
| 20260509132516 | 58 | 270 | 1.0 | 3.0 | 0.00 | 0.00 | 0.00 | 81 | 1012.5 |
| 20260509131516 | 58 | 315 | 1.0 | 4.0 | 0.00 | 0.00 | 0.00 | 81 | 1012.3 |